createdAt,value
2019-02-06T00:00:55.031Z,82.31
2019-02-06T00:03:24.607Z,82.39
2019-02-06T00:05:51.792Z,82.49
2019-02-06T00:08:18.975Z,82.57
2019-02-06T00:10:46.168Z,82.40
2019-02-06T00:13:13.380Z,79.92
2019-02-06T00:15:42.430Z,80.41
2019-02-06T00:18:09.922Z,80.92
2019-02-06T00:20:38.616Z,81.45
2019-02-06T00:23:06.834Z,81.64
2019-02-06T00:25:34.025Z,81.85
2019-02-06T00:28:01.108Z,82.05
2019-02-06T00:30:28.197Z,82.06
2019-02-06T00:32:55.307Z,82.16
2019-02-06T00:35:25.864Z,82.22
2019-02-06T00:37:51.695Z,82.31
2019-02-06T00:40:18.898Z,82.45
2019-02-06T00:42:46.030Z,82.47
2019-02-06T00:45:13.744Z,82.59
2019-02-06T00:47:40.834Z,82.49
2019-02-06T00:50:09.012Z,81.73
2019-02-06T00:52:36.425Z,81.89
2019-02-06T00:55:04.026Z,82.11
2019-02-06T00:57:31.129Z,82.10
2019-02-06T00:59:58.666Z,81.40
2019-02-06T01:02:25.840Z,80.88
2019-02-06T01:04:52.930Z,81.12
2019-02-06T01:07:20.042Z,81.31
2019-02-06T01:09:47.128Z,81.57
2019-02-06T01:12:14.204Z,81.48
2019-02-06T01:14:41.540Z,81.45
2019-02-06T01:17:08.624Z,81.66
2019-02-06T01:19:35.717Z,81.61
2019-02-06T01:22:03.107Z,81.58
2019-02-06T01:24:30.253Z,81.73
2019-02-06T01:26:57.363Z,81.64
2019-02-06T01:29:24.452Z,81.82
2019-02-06T01:31:52.242Z,81.75
2019-02-06T01:34:19.332Z,81.81
2019-02-06T01:36:46.520Z,81.82
2019-02-06T01:39:13.726Z,81.52
2019-02-06T01:41:40.898Z,81.70
2019-02-06T01:44:11.684Z,81.86
2019-02-06T01:46:40.172Z,81.99
2019-02-06T01:49:07.569Z,82.20
2019-02-06T01:51:34.765Z,82.27
2019-02-06T01:54:01.887Z,82.34
2019-02-06T01:56:29.079Z,82.16
2019-02-06T01:58:57.484Z,82.32
2019-02-06T02:01:25.802Z,82.42
2019-02-06T02:03:54.803Z,82.37
2019-02-06T02:06:23.408Z,82.45
2019-02-06T02:08:56.382Z,82.55
2019-02-06T02:11:25.308Z,82.54
2019-02-06T02:13:53.787Z,81.76
2019-02-06T02:16:21.080Z,81.12
2019-02-06T02:18:48.191Z,81.28
2019-02-06T02:21:16.405Z,81.32
2019-02-06T02:23:44.804Z,80.48
2019-02-06T02:26:12.231Z,80.36
2019-02-06T02:28:39.392Z,80.16
2019-02-06T02:31:07.549Z,80.78
2019-02-06T02:33:34.643Z,80.78
2019-02-06T02:36:14.274Z,81.11
2019-02-06T02:38:32.009Z,81.16
2019-02-06T02:41:01.018Z,81.11
2019-02-06T02:43:31.800Z,80.66
2019-02-06T02:45:59.019Z,80.66
2019-02-06T02:48:27.907Z,80.67
2019-02-06T02:50:56.148Z,80.51
2019-02-06T02:53:23.356Z,80.61
2019-02-06T02:55:52.692Z,80.88
2019-02-06T02:58:20.917Z,80.88
2019-02-06T03:01:22.902Z,80.82
2019-02-06T03:03:56.319Z,80.91
2019-02-06T03:06:28.217Z,81.20
2019-02-06T03:08:53.893Z,81.14
2019-02-06T03:11:22.079Z,80.78
2019-02-06T03:13:50.341Z,80.97
2019-02-06T03:16:17.444Z,81.11
2019-02-06T03:18:44.957Z,81.09
2019-02-06T03:21:12.056Z,80.98
2019-02-06T03:23:40.368Z,81.10
2019-02-06T03:26:07.489Z,81.32
2019-02-06T03:28:35.837Z,81.31
2019-02-06T03:31:02.999Z,81.44
2019-02-06T03:33:30.084Z,81.38
2019-02-06T03:35:58.281Z,81.32
2019-02-06T03:38:26.101Z,81.33
2019-02-06T03:40:55.189Z,81.36
2019-02-06T03:43:22.283Z,81.47
2019-02-06T03:45:49.396Z,81.55
2019-02-06T03:48:17.604Z,81.67
2019-02-06T03:50:44.769Z,81.74
2019-02-06T03:53:11.974Z,81.64
2019-02-06T03:55:40.801Z,81.74
2019-02-06T03:58:07.932Z,81.84
2019-02-06T04:00:35.037Z,81.94
2019-02-06T04:03:02.169Z,82.04
2019-02-06T04:05:29.257Z,82.09
2019-02-06T04:07:57.565Z,82.08
2019-02-06T04:10:26.012Z,82.11
2019-02-06T04:12:53.531Z,82.08
2019-02-06T04:15:21.676Z,82.06
2019-02-06T04:17:49.963Z,81.99
2019-02-06T04:20:18.288Z,82.12
2019-02-06T04:22:45.453Z,82.18
2019-02-06T04:25:14.095Z,82.17
2019-02-06T04:27:43.814Z,82.25
2019-02-06T04:30:13.034Z,82.35
2019-02-06T04:32:41.350Z,82.42
2019-02-06T04:35:10.775Z,82.54
2019-02-06T04:40:18.129Z,82.75
2019-02-06T04:42:45.737Z,82.72
2019-02-06T04:45:15.463Z,82.65
2019-02-06T04:47:42.569Z,82.60
2019-02-06T04:50:12.088Z,82.24
2019-02-06T04:52:42.219Z,82.23
2019-02-06T04:55:11.008Z,82.24
2019-02-06T04:57:38.108Z,82.19
2019-02-06T05:00:14.190Z,82.05
2019-02-06T05:02:41.302Z,81.87
2019-02-06T05:05:08.614Z,81.65
2019-02-06T05:07:35.718Z,81.82
2019-02-06T05:10:03.265Z,82.29
2019-02-06T05:12:30.359Z,82.65
2019-02-06T05:14:57.456Z,82.74
2019-02-06T05:17:24.757Z,82.89
2019-02-06T05:19:51.995Z,82.97
2019-02-06T05:22:20.412Z,82.94
2019-02-06T05:24:47.509Z,82.59
2019-02-06T05:27:14.669Z,82.62
2019-02-06T05:29:41.883Z,82.73
2019-02-06T05:32:10.253Z,82.66
2019-02-06T05:34:37.777Z,82.71
2019-02-06T05:37:06.199Z,82.80
2019-02-06T05:39:33.378Z,82.80
2019-02-06T05:42:02.317Z,83.15
2019-02-06T05:44:30.540Z,83.15
2019-02-06T05:46:57.653Z,83.39
2019-02-06T05:49:25.866Z,83.32
2019-02-06T05:51:53.154Z,83.37
2019-02-06T05:54:20.398Z,83.16
2019-02-06T05:56:47.771Z,82.86
2019-02-06T05:59:16.130Z,82.61
2019-02-06T06:01:43.352Z,82.45
2019-02-06T06:04:12.281Z,82.47
2019-02-06T06:06:39.650Z,82.58
2019-02-06T06:09:09.183Z,82.83
2019-02-06T06:11:36.581Z,82.83
2019-02-06T06:14:04.390Z,82.93
2019-02-06T06:16:31.495Z,82.96
2019-02-06T06:18:59.983Z,82.96
2019-02-06T06:21:28.894Z,83.21
2019-02-06T06:23:57.123Z,83.29
2019-02-06T06:26:24.314Z,83.32
2019-02-06T06:28:51.783Z,83.32
2019-02-06T06:31:18.906Z,83.00
2019-02-06T06:33:47.378Z,82.88
2019-02-06T06:36:14.633Z,82.88
2019-02-06T06:38:41.789Z,82.81
2019-02-06T06:41:11.255Z,82.73
2019-02-06T06:43:38.351Z,82.73
2019-02-06T06:46:05.476Z,82.59
2019-02-06T06:48:32.683Z,82.59
2019-02-06T06:50:59.896Z,82.61
2019-02-06T06:53:28.817Z,82.63
2019-02-06T06:55:57.061Z,82.63
2019-02-06T06:58:24.175Z,82.61
2019-02-06T07:00:51.375Z,82.59
2019-02-06T07:03:19.616Z,82.54
2019-02-06T07:05:47.128Z,82.56
2019-02-06T07:08:15.464Z,82.58
2019-02-06T07:10:44.782Z,82.75
2019-02-06T07:13:11.971Z,82.90
2019-02-06T07:15:39.208Z,82.90
2019-02-06T07:18:06.384Z,82.59
2019-02-06T07:20:34.830Z,82.59
2019-02-06T07:23:03.585Z,82.66
2019-02-06T07:25:30.708Z,82.62
2019-02-06T07:27:59.124Z,82.62
2019-02-06T07:30:35.783Z,82.44
2019-02-06T07:33:03.616Z,82.31
2019-02-06T07:35:32.094Z,82.09
2019-02-06T07:38:00.775Z,82.09
2019-02-06T07:40:29.637Z,82.09
2019-02-06T07:42:56.769Z,82.03
2019-02-06T07:45:24.951Z,82.00
2019-02-06T07:47:52.067Z,81.93
2019-02-06T07:50:23.442Z,81.94
2019-02-06T07:52:50.688Z,82.09
2019-02-06T07:55:17.832Z,82.22
2019-02-06T07:57:45.152Z,82.26
2019-02-06T08:00:12.600Z,82.21
2019-02-06T08:02:40.117Z,82.10
2019-02-06T08:05:10.516Z,82.15
2019-02-06T08:07:37.645Z,82.06
2019-02-06T08:10:07.062Z,82.08
2019-02-06T08:12:37.279Z,82.14
2019-02-06T08:15:06.145Z,82.34
2019-02-06T08:17:36.188Z,82.40
2019-02-06T08:20:04.133Z,82.38
2019-02-06T08:22:31.253Z,82.53
2019-02-06T08:24:59.475Z,82.73
2019-02-06T08:27:27.020Z,82.79
2019-02-06T08:29:55.436Z,82.76
2019-02-06T08:32:22.773Z,82.72
2019-02-06T08:34:49.872Z,82.81
2019-02-06T08:37:18.378Z,82.84
2019-02-06T08:39:46.591Z,82.87
2019-02-06T08:42:13.710Z,82.75
2019-02-06T08:44:41.354Z,82.67
2019-02-06T08:47:08.740Z,82.47
2019-02-06T08:49:35.887Z,82.40
2019-02-06T08:52:04.096Z,82.46
2019-02-06T08:54:31.289Z,82.41
2019-02-06T08:56:59.485Z,82.46
2019-02-06T08:59:28.281Z,82.52
2019-02-06T09:01:57.482Z,82.62
2019-02-06T09:04:24.590Z,82.75
2019-02-06T09:06:51.688Z,82.75
2019-02-06T09:09:18.898Z,82.76
2019-02-06T09:11:47.347Z,82.78
2019-02-06T09:14:14.435Z,82.68
2019-02-06T09:16:44.795Z,82.52
2019-02-06T09:19:12.325Z,82.49
2019-02-06T09:21:40.780Z,82.46
2019-02-06T09:24:07.874Z,82.47
2019-02-06T09:26:36.253Z,82.52
2019-02-06T09:29:04.677Z,82.58
2019-02-06T09:31:33.593Z,82.61
2019-02-06T09:34:00.900Z,82.69
2019-02-06T09:36:29.692Z,82.70
2019-02-06T09:38:58.000Z,82.73
2019-02-06T09:41:25.203Z,82.71
2019-02-06T09:43:52.461Z,82.73
2019-02-06T09:46:19.578Z,82.63
2019-02-06T09:48:46.682Z,82.40
2019-02-06T09:51:13.872Z,82.40
2019-02-06T09:53:42.789Z,82.21
2019-02-06T09:56:10.191Z,82.19
2019-02-06T09:58:37.436Z,82.14
2019-02-06T10:01:04.775Z,82.07
2019-02-06T10:03:32.137Z,82.05
2019-02-06T10:05:59.308Z,82.05
2019-02-06T10:08:26.421Z,81.99
2019-02-06T10:10:53.520Z,81.84
2019-02-06T10:13:22.883Z,81.89
2019-02-06T10:15:51.811Z,81.83
2019-02-06T10:18:20.703Z,81.86
2019-02-06T10:20:49.855Z,81.83
2019-02-06T10:23:18.857Z,81.94
2019-02-06T10:25:47.165Z,82.04
2019-02-06T10:28:17.940Z,82.11
2019-02-06T10:30:51.550Z,81.87
2019-02-06T10:33:20.168Z,81.86
2019-02-06T10:35:52.069Z,81.57
2019-02-06T10:38:18.240Z,81.63
2019-02-06T10:40:46.516Z,81.58
2019-02-06T10:43:13.735Z,81.49
2019-02-06T10:45:42.083Z,81.39
2019-02-06T10:48:10.479Z,81.34
2019-02-06T10:50:40.243Z,81.53
2019-02-06T10:53:07.816Z,81.54
2019-02-06T10:55:36.144Z,81.66
2019-02-06T10:58:06.136Z,81.55
2019-02-06T11:00:38.090Z,81.36
2019-02-06T11:03:05.280Z,81.35
2019-02-06T11:05:32.396Z,81.17
2019-02-06T11:08:00.637Z,81.12
2019-02-06T11:10:27.942Z,81.17
2019-02-06T11:12:56.244Z,81.18
2019-02-06T11:15:24.078Z,81.22
2019-02-06T11:17:51.572Z,81.10
2019-02-06T11:20:18.964Z,81.07
2019-02-06T11:22:46.304Z,80.98
2019-02-06T11:25:13.778Z,80.97
2019-02-06T11:27:40.870Z,80.95
2019-02-06T11:30:11.661Z,81.06
2019-02-06T11:32:38.756Z,81.05
2019-02-06T11:35:08.185Z,81.00
2019-02-06T11:37:35.411Z,81.00
2019-02-06T11:40:04.416Z,80.91
2019-02-06T11:42:32.652Z,80.95
2019-02-06T11:44:59.996Z,80.99
2019-02-06T11:47:27.098Z,80.89
2019-02-06T11:49:56.461Z,80.35
2019-02-06T11:52:25.821Z,79.56
2019-02-06T11:54:52.997Z,79.84
2019-02-06T11:57:20.190Z,80.02
2019-02-06T11:59:49.087Z,80.13
2019-02-06T12:02:19.358Z,80.10
2019-02-06T12:04:46.453Z,80.14
2019-02-06T12:07:14.687Z,79.34
2019-02-06T12:09:42.980Z,79.01
2019-02-06T12:12:10.226Z,79.16
2019-02-06T12:14:37.463Z,78.37
2019-02-06T12:17:06.100Z,78.55
2019-02-06T12:19:34.992Z,78.96
2019-02-06T12:22:02.160Z,78.77
2019-02-06T12:24:29.245Z,78.11
2019-02-06T12:26:56.440Z,78.66
2019-02-06T12:29:23.528Z,79.02
2019-02-06T12:31:50.622Z,79.27
2019-02-06T12:34:17.766Z,79.32
2019-02-06T12:36:45.964Z,78.45
2019-02-06T12:39:13.146Z,78.81
2019-02-06T12:41:40.278Z,77.62
2019-02-06T12:44:07.373Z,78.20
2019-02-06T12:46:34.472Z,77.48
2019-02-06T12:49:01.984Z,76.71
2019-02-06T12:51:30.184Z,77.42
2019-02-06T12:53:57.274Z,77.43
2019-02-06T12:56:24.473Z,77.79
2019-02-06T12:58:51.663Z,77.54
2019-02-06T13:01:19.994Z,77.71
2019-02-06T13:03:47.121Z,77.28
2019-02-06T13:06:16.182Z,76.28
2019-02-06T13:08:43.386Z,76.07
2019-02-06T13:11:10.485Z,76.24
2019-02-06T13:13:37.678Z,74.83
2019-02-06T13:16:06.723Z,74.25
2019-02-06T13:18:34.058Z,73.92
2019-02-06T13:21:03.254Z,75.11
2019-02-06T13:23:30.423Z,75.74
2019-02-06T13:26:00.617Z,75.61
2019-02-06T13:28:30.919Z,76.40
2019-02-06T13:31:01.780Z,75.47
2019-02-06T13:33:28.873Z,75.87
2019-02-06T13:35:56.078Z,76.62
2019-02-06T13:38:25.096Z,76.60
2019-02-06T13:40:57.328Z,76.71
2019-02-06T13:43:25.534Z,77.10
2019-02-06T13:45:53.835Z,77.38
2019-02-06T13:48:21.004Z,77.63
2019-02-06T13:50:49.404Z,77.83
2019-02-06T13:53:17.894Z,77.88
2019-02-06T13:55:45.528Z,78.01
2019-02-06T13:58:20.166Z,78.10
2019-02-06T14:00:45.388Z,77.86
2019-02-06T14:03:15.330Z,78.08
2019-02-06T14:05:43.134Z,78.23
2019-02-06T14:08:15.367Z,78.40
2019-02-06T14:10:42.972Z,78.50
2019-02-06T14:13:12.529Z,78.54
2019-02-06T14:15:41.417Z,78.60
2019-02-06T14:18:10.356Z,78.34
2019-02-06T14:20:38.353Z,78.17
2019-02-06T14:23:14.459Z,78.40
2019-02-06T14:26:06.319Z,77.67
2019-02-06T14:29:31.063Z,77.96
2019-02-06T14:32:29.515Z,78.04
2019-02-06T14:35:25.638Z,77.84
2019-02-06T14:38:40.574Z,76.11
2019-02-06T14:41:32.461Z,75.43
2019-02-06T14:44:46.378Z,76.35
2019-02-06T14:48:00.193Z,76.02
2019-02-06T14:50:53.120Z,74.74
2019-02-06T14:54:02.079Z,75.12
2019-02-06T14:57:23.521Z,74.65
2019-02-06T15:00:14.074Z,74.77
2019-02-06T15:03:34.513Z,75.25
2019-02-06T15:06:38.033Z,74.79
2019-02-06T15:09:37.770Z,73.24
2019-02-06T15:12:30.188Z,73.68
2019-02-06T15:15:44.054Z,73.96
2019-02-06T15:18:48.737Z,74.44
2019-02-06T15:21:30.104Z,74.93
2019-02-06T15:24:22.680Z,75.05
2019-02-06T15:27:28.703Z,75.31
2019-02-06T15:30:18.034Z,74.58
2019-02-06T15:33:26.570Z,75.67
2019-02-06T15:36:37.731Z,76.15
2019-02-06T15:39:38.412Z,76.60
2019-02-06T15:42:43.278Z,76.90
2019-02-06T15:45:41.635Z,77.14
2019-02-06T15:48:51.116Z,77.37
2019-02-06T15:51:40.233Z,77.63
2019-02-06T15:54:49.024Z,77.77
2019-02-06T15:58:11.483Z,77.94
2019-02-06T16:01:37.936Z,78.03
2019-02-06T16:05:20.968Z,78.14
2019-02-06T16:08:26.174Z,78.26
2019-02-06T16:11:42.476Z,78.36
2019-02-06T16:14:47.137Z,78.38
2019-02-06T16:18:08.594Z,78.45
2019-02-06T16:21:12.253Z,78.49
2019-02-06T16:24:26.912Z,78.51
2019-02-06T16:27:34.565Z,78.51
2019-02-06T16:31:10.664Z,78.47
2019-02-06T16:34:08.741Z,78.10
2019-02-06T16:37:26.516Z,78.18
2019-02-06T16:40:49.648Z,78.23
2019-02-06T16:44:00.945Z,78.20
2019-02-06T16:46:55.208Z,78.20
2019-02-06T16:50:03.833Z,78.27
2019-02-06T16:52:41.333Z,78.31
2019-02-06T16:55:48.857Z,78.34
2019-02-06T16:58:39.488Z,78.49
2019-02-06T17:01:51.638Z,78.67
2019-02-06T17:04:49.760Z,78.62
2019-02-06T17:07:43.384Z,78.58
2019-02-06T17:10:58.642Z,78.60
2019-02-06T17:14:08.956Z,78.67
2019-02-06T17:17:01.326Z,78.69
2019-02-06T17:19:49.669Z,78.76
2019-02-06T17:22:52.439Z,78.77
2019-02-06T17:26:00.280Z,78.80
2019-02-06T17:29:08.161Z,78.91
2019-02-06T17:32:18.245Z,78.90
2019-02-06T17:35:33.476Z,78.91
2019-02-06T17:38:33.541Z,79.05
2019-02-06T17:41:25.744Z,79.07
2019-02-06T17:44:07.711Z,79.08
2019-02-06T17:47:19.497Z,79.13
2019-02-06T17:50:27.508Z,79.18
2019-02-06T17:53:29.171Z,79.29
2019-02-06T17:55:56.264Z,79.79
2019-02-06T17:58:23.411Z,79.80
2019-02-06T18:01:01.411Z,79.84
2019-02-06T18:03:32.942Z,79.76
2019-02-06T18:06:01.234Z,80.23
2019-02-06T18:08:28.345Z,80.09
2019-02-06T18:10:58.849Z,80.40
2019-02-06T18:13:25.994Z,80.40
2019-02-06T18:15:54.398Z,80.49
2019-02-06T18:18:22.313Z,81.50
2019-02-06T18:20:55.676Z,81.43
2019-02-06T18:23:23.971Z,80.87
2019-02-06T18:25:53.313Z,80.80
2019-02-06T18:28:20.425Z,81.05
2019-02-06T18:30:47.526Z,80.76
2019-02-06T18:33:14.737Z,80.81
2019-02-06T18:35:41.906Z,80.54
2019-02-06T18:38:09.326Z,80.61
2019-02-06T18:40:40.280Z,80.72
2019-02-06T18:43:07.341Z,80.94
2019-02-06T18:45:34.533Z,80.77
2019-02-06T18:48:03.546Z,80.60
2019-02-06T18:50:31.312Z,80.69
2019-02-06T18:53:00.266Z,81.05
2019-02-06T18:55:28.644Z,81.35
2019-02-06T18:57:57.155Z,81.95
2019-02-06T19:00:28.357Z,81.94
2019-02-06T19:02:56.620Z,81.55
2019-02-06T19:05:33.261Z,81.28
2019-02-06T19:08:01.807Z,81.06
2019-02-06T19:10:30.370Z,81.24
2019-02-06T19:12:59.738Z,81.71
2019-02-06T19:15:28.474Z,81.62
2019-02-06T19:17:59.249Z,81.62
2019-02-06T19:20:26.461Z,82.08
2019-02-06T19:22:53.571Z,82.46
2019-02-06T19:25:24.048Z,83.09
2019-02-06T19:28:12.030Z,82.66
2019-02-06T19:30:40.672Z,83.17
2019-02-06T19:33:11.296Z,83.07
2019-02-06T19:35:38.319Z,83.35
2019-02-06T19:38:07.680Z,83.48
2019-02-06T19:40:35.244Z,83.68
2019-02-06T19:43:03.603Z,83.84
2019-02-06T19:45:30.709Z,83.98
2019-02-06T19:47:58.270Z,84.29
2019-02-06T19:50:29.017Z,83.85
2019-02-06T19:52:56.283Z,84.32
2019-02-06T19:55:23.385Z,84.50
2019-02-06T19:57:52.686Z,85.11
2019-02-06T20:00:25.355Z,84.15
2019-02-06T20:02:55.474Z,84.50
2019-02-06T20:05:23.176Z,84.87
2019-02-06T20:07:51.388Z,84.38
2019-02-06T20:10:22.485Z,84.61
2019-02-06T20:12:49.566Z,84.32
2019-02-06T20:15:17.780Z,84.67
2019-02-06T20:17:45.196Z,85.02
2019-02-06T20:20:14.974Z,84.70
2019-02-06T20:22:43.970Z,85.04
2019-02-06T20:25:11.681Z,85.27
2019-02-06T20:27:38.931Z,85.43
2019-02-06T20:30:10.004Z,85.37
2019-02-06T20:32:39.007Z,85.51
2019-02-06T20:35:09.082Z,85.76
2019-02-06T20:37:36.183Z,86.08
2019-02-06T20:40:04.991Z,86.14
2019-02-06T20:42:32.641Z,86.61
2019-02-06T20:44:59.769Z,86.76
2019-02-06T20:47:26.883Z,86.98
2019-02-06T20:49:53.969Z,86.75
2019-02-06T20:52:23.599Z,86.95
2019-02-06T20:54:50.145Z,86.42
2019-02-06T20:57:17.264Z,85.62
2019-02-06T20:59:44.351Z,85.96
2019-02-06T21:02:11.736Z,85.92
2019-02-06T21:04:38.913Z,85.97
2019-02-06T21:07:06.006Z,85.66
2019-02-06T21:09:33.176Z,86.06
2019-02-06T21:12:01.385Z,85.68
2019-02-06T21:14:28.476Z,85.26
2019-02-06T21:16:55.687Z,84.98
2019-02-06T21:19:23.860Z,84.71
2019-02-06T21:21:53.345Z,84.72
2019-02-06T21:24:20.558Z,84.96
2019-02-06T21:26:50.640Z,85.03
2019-02-06T21:29:21.579Z,85.81
2019-02-06T21:31:48.845Z,85.87
2019-02-06T21:34:18.859Z,85.74
2019-02-06T21:36:46.424Z,85.57
2019-02-06T21:39:13.500Z,86.25
2019-02-06T21:41:42.926Z,85.89
2019-02-06T21:44:13.754Z,86.23
2019-02-06T21:46:41.185Z,86.21
2019-02-06T21:49:08.278Z,86.37
2019-02-06T21:51:35.427Z,86.59
2019-02-06T21:54:02.821Z,86.72
2019-02-06T21:56:29.966Z,86.56
2019-02-06T21:58:57.107Z,86.49
2019-02-06T22:01:24.308Z,87.41
2019-02-06T22:03:53.200Z,87.27
2019-02-06T22:06:21.402Z,86.86
2019-02-06T22:08:51.063Z,86.96
2019-02-06T22:11:20.232Z,87.80
2019-02-06T22:13:55.021Z,87.90
2019-02-06T22:16:17.648Z,87.80
2019-02-06T22:18:44.954Z,87.95
2019-02-06T22:21:16.128Z,87.81
2019-02-06T22:23:47.224Z,88.05
2019-02-06T22:26:17.322Z,87.76
2019-02-06T22:28:45.613Z,87.75
2019-02-06T22:31:12.874Z,87.53
2019-02-06T22:33:41.422Z,87.60
2019-02-06T22:36:09.535Z,87.47
2019-02-06T22:38:36.732Z,87.36
2019-02-06T22:41:06.144Z,87.23
2019-02-06T22:43:36.255Z,87.24
2019-02-06T22:46:03.388Z,87.26
2019-02-06T22:48:30.487Z,87.19
2019-02-06T22:50:57.661Z,87.29
2019-02-06T22:53:24.793Z,87.62
2019-02-06T22:55:51.908Z,87.40
2019-02-06T22:58:19.426Z,87.28
2019-02-06T23:01:03.384Z,87.59
2019-02-06T23:03:40.614Z,87.38
2019-02-06T23:06:08.904Z,87.12
2019-02-06T23:08:36.353Z,86.89
2019-02-06T23:11:04.276Z,86.55
2019-02-06T23:13:33.172Z,86.39
2019-02-06T23:16:00.384Z,86.47
2019-02-06T23:18:27.476Z,86.52
2019-02-06T23:20:56.521Z,86.47
2019-02-06T23:23:23.583Z,86.33
2019-02-06T23:25:51.108Z,86.41
2019-02-06T23:28:19.414Z,86.71
2019-02-06T23:30:46.503Z,86.49
2019-02-06T23:33:13.699Z,86.25
2019-02-06T23:35:40.800Z,86.42
2019-02-06T23:38:08.091Z,86.31
2019-02-06T23:40:36.295Z,86.14
2019-02-06T23:43:05.937Z,86.21
2019-02-06T23:45:33.046Z,86.22
2019-02-06T23:48:01.264Z,86.04
2019-02-06T23:50:28.422Z,85.91
2019-02-06T23:52:56.513Z,85.97
2019-02-06T23:55:24.702Z,86.12
2019-02-06T23:57:54.639Z,86.03
